createdAt,value
2023-04-27T00:00:52.126Z,8.86
2023-04-27T00:03:23.061Z,8.85
2023-04-27T00:05:54.373Z,8.84
2023-04-27T00:08:24.935Z,8.84
2023-04-27T00:10:56.473Z,8.83
2023-04-27T00:13:27.465Z,8.83
2023-04-27T00:16:00.437Z,8.80
2023-04-27T00:18:31.354Z,8.79
2023-04-27T00:21:01.691Z,8.77
2023-04-27T00:23:32.399Z,8.77
2023-04-27T00:26:03.343Z,8.76
2023-04-27T00:28:33.864Z,8.74
2023-04-27T00:31:04.803Z,8.73
2023-04-27T00:33:35.942Z,8.74
2023-04-27T00:36:09.652Z,8.74
2023-04-27T00:38:40.284Z,8.73
2023-04-27T00:41:10.808Z,8.74
2023-04-27T00:43:45.221Z,8.74
2023-04-27T00:46:17.399Z,8.74
2023-04-27T00:48:48.537Z,8.73
2023-04-27T00:51:19.882Z,8.72
2023-04-27T00:53:53.067Z,8.74
2023-04-27T00:56:23.595Z,8.72
2023-04-27T00:58:54.324Z,8.70
2023-04-27T01:01:24.878Z,8.70
2023-04-27T01:03:56.847Z,8.69
2023-04-27T01:06:29.389Z,8.69
2023-04-27T01:08:59.922Z,8.68
2023-04-27T01:11:31.055Z,8.68
2023-04-27T01:14:06.092Z,8.65
2023-04-27T01:16:37.524Z,8.65
2023-04-27T01:19:08.996Z,8.66
2023-04-27T01:21:39.921Z,8.66
2023-04-27T01:24:12.094Z,8.66
2023-04-27T01:26:42.003Z,8.66
2023-04-27T01:29:13.842Z,8.65
2023-04-27T01:31:45.963Z,8.65
2023-04-27T01:34:16.048Z,8.63
2023-04-27T01:36:50.870Z,8.64
2023-04-27T01:39:21.600Z,8.63
2023-04-27T01:41:52.355Z,8.63
2023-04-27T01:44:23.632Z,8.63
2023-04-27T01:46:53.602Z,8.63
2023-04-27T01:49:24.745Z,8.63
2023-04-27T01:51:56.911Z,8.63
2023-04-27T01:54:28.806Z,8.63
2023-04-27T01:56:58.990Z,8.63
2023-04-27T01:59:29.927Z,8.62
2023-04-27T02:02:00.507Z,8.61
2023-04-27T02:04:33.172Z,8.61
2023-04-27T02:07:03.761Z,8.62
2023-04-27T02:09:34.296Z,8.61
2023-04-27T02:12:07.481Z,8.61
2023-04-27T02:14:39.042Z,8.62
2023-04-27T02:17:09.774Z,8.61
2023-04-27T02:19:39.880Z,8.62
2023-04-27T02:22:10.612Z,8.61
2023-04-27T02:24:41.550Z,8.61
2023-04-27T02:27:12.489Z,8.61
2023-04-27T02:29:44.666Z,8.60
2023-04-27T02:32:15.997Z,8.61
2023-04-27T02:34:46.529Z,8.60
2023-04-27T02:37:17.056Z,8.59
2023-04-27T02:39:47.588Z,8.59
2023-04-27T02:42:18.112Z,8.59
2023-04-27T02:44:48.839Z,8.59
2023-04-27T02:47:20.404Z,8.58
2023-04-27T02:49:50.925Z,8.60
2023-04-27T02:52:21.036Z,8.57
2023-04-27T02:54:51.787Z,8.57
2023-04-27T02:57:22.304Z,8.56
2023-04-27T02:59:53.030Z,8.55
2023-04-27T03:02:24.643Z,8.52
2023-04-27T03:04:55.523Z,8.50
2023-04-27T03:07:26.460Z,8.49
2023-04-27T03:09:56.988Z,8.48
2023-04-27T03:12:27.509Z,8.45
2023-04-27T03:14:59.264Z,8.46
2023-04-27T03:17:30.073Z,8.44
2023-04-27T03:20:01.138Z,8.44
2023-04-27T03:22:31.468Z,8.41
2023-04-27T03:25:02.822Z,8.39
2023-04-27T03:27:32.927Z,8.37
2023-04-27T03:30:04.280Z,8.35
2023-04-27T03:32:34.401Z,8.34
2023-04-27T03:35:06.972Z,8.34
2023-04-27T03:37:37.515Z,8.31
2023-04-27T03:40:12.417Z,8.31
2023-04-27T03:42:42.849Z,8.31
2023-04-27T03:45:16.196Z,8.31
2023-04-27T03:47:45.712Z,8.29
2023-04-27T03:50:17.323Z,8.29
2023-04-27T03:52:47.435Z,8.29
2023-04-27T03:55:19.360Z,8.28
2023-04-27T03:57:49.912Z,8.29
2023-04-27T04:00:21.464Z,8.29
2023-04-27T04:02:51.697Z,8.28
2023-04-27T04:05:22.228Z,8.28
2023-04-27T04:07:53.450Z,8.27
2023-04-27T04:10:25.632Z,8.27
2023-04-27T04:12:55.739Z,8.25
2023-04-27T04:15:26.676Z,8.22
2023-04-27T04:17:56.812Z,8.22
2023-04-27T04:20:27.522Z,8.22
2023-04-27T04:22:58.459Z,8.22
2023-04-27T04:25:29.809Z,8.20
2023-04-27T04:28:01.364Z,8.19
2023-04-27T04:30:32.849Z,8.20
2023-04-27T04:33:03.075Z,8.21
2023-04-27T04:35:33.554Z,8.22
2023-04-27T04:38:04.291Z,8.21
2023-04-27T04:40:35.018Z,8.24
2023-04-27T04:43:08.218Z,8.24
2023-04-27T04:45:38.954Z,8.25
2023-04-27T04:48:09.878Z,8.26
2023-04-27T04:50:41.634Z,8.25
2023-04-27T04:53:11.955Z,8.27
2023-04-27T04:55:42.695Z,8.28
2023-04-27T04:58:13.216Z,8.29
2023-04-27T05:00:44.151Z,8.32
2023-04-27T05:03:14.203Z,8.31
2023-04-27T05:05:44.799Z,8.33
2023-04-27T05:08:16.958Z,8.34
2023-04-27T05:10:51.393Z,8.35
2023-04-27T05:13:24.233Z,8.38
2023-04-27T05:15:55.137Z,8.37
2023-04-27T05:18:25.424Z,8.39
2023-04-27T05:20:55.745Z,8.40
2023-04-27T05:23:26.501Z,8.40
2023-04-27T05:25:57.219Z,8.36
2023-04-27T05:28:27.958Z,8.35
2023-04-27T05:30:58.475Z,8.35
2023-04-27T05:33:28.592Z,8.36
2023-04-27T05:35:59.543Z,8.39
2023-04-27T05:38:30.257Z,8.40
2023-04-27T05:41:00.994Z,8.42
2023-04-27T05:43:31.320Z,8.43
2023-04-27T05:46:01.522Z,8.46
2023-04-27T05:48:31.550Z,8.48
2023-04-27T05:51:02.897Z,8.51
2023-04-27T05:53:34.656Z,8.51
2023-04-27T05:56:06.888Z,8.53
2023-04-27T05:58:36.731Z,8.55
2023-04-27T06:01:08.259Z,8.56
2023-04-27T06:03:38.979Z,8.58
2023-04-27T06:06:09.766Z,8.58
2023-04-27T06:08:40.892Z,8.60
2023-04-27T06:11:11.422Z,8.62
2023-04-27T06:13:42.166Z,8.66
2023-04-27T06:16:13.112Z,8.69
2023-04-27T06:18:43.212Z,8.72
2023-04-27T06:21:13.986Z,8.75
2023-04-27T06:23:43.854Z,8.77
2023-04-27T06:26:14.798Z,8.79
2023-04-27T06:28:45.322Z,8.83
2023-04-27T06:31:15.492Z,8.85
2023-04-27T06:33:46.166Z,8.91
2023-04-27T06:36:16.896Z,8.98
2023-04-27T06:38:47.632Z,9.04
2023-04-27T06:41:18.158Z,9.11
2023-04-27T06:43:49.096Z,9.20
2023-04-27T06:46:20.074Z,9.30
2023-04-27T06:48:52.132Z,9.39
2023-04-27T06:51:22.727Z,9.48
2023-04-27T06:53:53.676Z,9.57
2023-04-27T06:56:24.198Z,9.65
2023-04-27T06:58:54.927Z,9.75
2023-04-27T07:01:25.878Z,9.84
2023-04-27T07:03:57.057Z,9.96
2023-04-27T07:06:28.353Z,10.08
2023-04-27T07:08:59.087Z,10.20
2023-04-27T07:11:29.617Z,10.31
2023-04-27T07:14:00.341Z,10.42
2023-04-27T07:16:31.202Z,10.53
2023-04-27T07:19:01.803Z,10.63
2023-04-27T07:21:33.155Z,10.75
2023-04-27T07:24:03.619Z,10.84
2023-04-27T07:26:34.003Z,10.91
2023-04-27T07:29:14.429Z,10.99
2023-04-27T07:31:52.025Z,11.06
2023-04-27T07:34:22.785Z,11.13
2023-04-27T07:36:54.521Z,11.20
2023-04-27T07:39:24.662Z,11.23
2023-04-27T07:41:56.213Z,11.24
2023-04-27T07:44:28.405Z,11.30
2023-04-27T07:46:58.534Z,11.32
2023-04-27T07:49:29.229Z,11.35
2023-04-27T07:52:00.172Z,11.37
2023-04-27T07:54:31.111Z,11.40
2023-04-27T07:57:01.846Z,11.42
2023-04-27T07:59:32.563Z,11.44
2023-04-27T08:04:36.547Z,11.45
2023-04-27T08:07:08.013Z,11.48
2023-04-27T08:09:39.388Z,11.50
2023-04-27T08:12:10.325Z,11.52
2023-04-27T08:14:40.330Z,11.54
2023-04-27T08:17:10.979Z,11.56
2023-04-27T08:19:42.344Z,11.60
2023-04-27T08:22:12.644Z,11.68
2023-04-27T08:24:42.835Z,11.69
2023-04-27T08:27:13.081Z,11.74
2023-04-27T08:29:48.195Z,11.80
2023-04-27T08:32:18.436Z,11.85
2023-04-27T08:34:49.372Z,11.91
2023-04-27T08:37:20.137Z,11.99
2023-04-27T08:39:50.632Z,12.08
2023-04-27T08:42:22.390Z,12.15
2023-04-27T08:44:52.610Z,12.22
2023-04-27T08:47:31.393Z,12.26
2023-04-27T08:50:13.385Z,12.33
2023-04-27T08:52:48.050Z,12.41
2023-04-27T08:55:18.177Z,12.49
2023-04-27T08:58:00.933Z,12.57
2023-04-27T09:00:41.100Z,12.71
2023-04-27T09:03:22.297Z,12.81
2023-04-27T09:06:04.501Z,12.90
2023-04-27T09:08:46.395Z,12.96
2023-04-27T09:11:17.655Z,13.02
2023-04-27T09:13:48.184Z,13.10
2023-04-27T09:16:25.983Z,13.21
